sensor_id;sensor_type;location;lat;lon;timestamp;temperature;humidity
16814;DHT22;8524;57.650;11.926;2022-09-09T00:02:12;13.00;99.90
16814;DHT22;8524;57.650;11.926;2022-09-09T00:04:48;12.90;99.90
16814;DHT22;8524;57.650;11.926;2022-09-09T00:07:24;12.80;99.90
16814;DHT22;8524;57.650;11.926;2022-09-09T00:10:04;12.80;99.90
16814;DHT22;8524;57.650;11.926;2022-09-09T00:12:39;12.80;99.90
16814;DHT22;8524;57.650;11.926;2022-09-09T00:15:13;12.70;99.90
16814;DHT22;8524;57.650;11.926;2022-09-09T00:17:46;12.70;99.90
16814;DHT22;8524;57.650;11.926;2022-09-09T00:20:18;12.80;99.90
16814;DHT22;8524;57.650;11.926;2022-09-09T00:23:03;12.80;99.90
16814;DHT22;8524;57.650;11.926;2022-09-09T00:25:39;12.80;99.90
16814;DHT22;8524;57.650;11.926;2022-09-09T00:28:15;12.80;99.90
16814;DHT22;8524;57.650;11.926;2022-09-09T00:30:44;12.80;99.90
16814;DHT22;8524;57.650;11.926;2022-09-09T00:33:17;12.70;99.90
16814;DHT22;8524;57.650;11.926;2022-09-09T00:35:49;12.70;99.90
16814;DHT22;8524;57.650;11.926;2022-09-09T00:38:19;12.70;99.90
16814;DHT22;8524;57.650;11.926;2022-09-09T00:40:52;12.70;99.90
16814;DHT22;8524;57.650;11.926;2022-09-09T00:43:31;12.70;99.90
16814;DHT22;8524;57.650;11.926;2022-09-09T00:49:19;12.80;99.90
16814;DHT22;8524;57.650;11.926;2022-09-09T00:51:56;12.70;99.90
16814;DHT22;8524;57.650;11.926;2022-09-09T00:54:35;12.80;99.90
16814;DHT22;8524;57.650;11.926;2022-09-09T00:57:13;12.70;99.90
16814;DHT22;8524;57.650;11.926;2022-09-09T00:59:47;12.80;99.90
16814;DHT22;8524;57.650;11.926;2022-09-09T01:02:21;12.70;99.90
16814;DHT22;8524;57.650;11.926;2022-09-09T01:04:53;12.60;99.90
16814;DHT22;8524;57.650;11.926;2022-09-09T01:07:21;12.70;99.90
16814;DHT22;8524;57.650;11.926;2022-09-09T01:09:54;12.60;99.90
16814;DHT22;8524;57.650;11.926;2022-09-09T01:12:30;12.60;99.90
16814;DHT22;8524;57.650;11.926;2022-09-09T01:15:04;12.60;99.90
16814;DHT22;8524;57.650;11.926;2022-09-09T01:17:44;12.50;99.90
16814;DHT22;8524;57.650;11.926;2022-09-09T01:20:18;12.50;99.90
16814;DHT22;8524;57.650;11.926;2022-09-09T01:22:57;12.60;99.90
16814;DHT22;8524;57.650;11.926;2022-09-09T01:28:22;12.60;99.90
16814;DHT22;8524;57.650;11.926;2022-09-09T01:30:51;12.60;99.90
16814;DHT22;8524;57.650;11.926;2022-09-09T01:33:18;12.50;99.90
16814;DHT22;8524;57.650;11.926;2022-09-09T01:35:49;12.50;99.90
16814;DHT22;8524;57.650;11.926;2022-09-09T01:38:20;12.40;99.90
16814;DHT22;8524;57.650;11.926;2022-09-09T01:40:48;12.40;99.90
16814;DHT22;8524;57.650;11.926;2022-09-09T01:43:20;12.40;99.90
16814;DHT22;8524;57.650;11.926;2022-09-09T01:45:49;12.30;99.90
16814;DHT22;8524;57.650;11.926;2022-09-09T01:48:18;12.30;99.90
16814;DHT22;8524;57.650;11.926;2022-09-09T01:50:45;12.30;99.90
16814;DHT22;8524;57.650;11.926;2022-09-09T01:53:12;12.30;99.90
16814;DHT22;8524;57.650;11.926;2022-09-09T01:55:46;12.30;99.90
16814;DHT22;8524;57.650;11.926;2022-09-09T01:58:24;12.30;99.90
16814;DHT22;8524;57.650;11.926;2022-09-09T02:00:59;12.40;99.90
16814;DHT22;8524;57.650;11.926;2022-09-09T02:03:28;12.50;99.90
16814;DHT22;8524;57.650;11.926;2022-09-09T02:06:01;12.40;99.90
16814;DHT22;8524;57.650;11.926;2022-09-09T02:08:39;12.40;99.90
16814;DHT22;8524;57.650;11.926;2022-09-09T02:11:10;12.40;99.90
16814;DHT22;8524;57.650;11.926;2022-09-09T02:13:42;12.40;99.90
16814;DHT22;8524;57.650;11.926;2022-09-09T02:16:13;12.40;99.90
16814;DHT22;8524;57.650;11.926;2022-09-09T02:18:46;12.40;99.90
16814;DHT22;8524;57.650;11.926;2022-09-09T02:21:16;12.40;99.90
16814;DHT22;8524;57.650;11.926;2022-09-09T02:23:46;12.40;99.90
16814;DHT22;8524;57.650;11.926;2022-09-09T02:26:14;12.40;99.90
16814;DHT22;8524;57.650;11.926;2022-09-09T02:28:49;12.40;99.90
16814;DHT22;8524;57.650;11.926;2022-09-09T02:31:18;12.40;99.90
16814;DHT22;8524;57.650;11.926;2022-09-09T02:33:49;12.40;99.90
16814;DHT22;8524;57.650;11.926;2022-09-09T02:36:19;12.50;99.90
16814;DHT22;8524;57.650;11.926;2022-09-09T02:38:47;12.50;99.90
16814;DHT22;8524;57.650;11.926;2022-09-09T02:41:19;12.40;99.90
16814;DHT22;8524;57.650;11.926;2022-09-09T02:43:49;12.40;99.90
16814;DHT22;8524;57.650;11.926;2022-09-09T02:46:28;12.40;99.90
16814;DHT22;8524;57.650;11.926;2022-09-09T02:49:00;12.50;99.90
16814;DHT22;8524;57.650;11.926;2022-09-09T02:51:33;12.50;99.90
16814;DHT22;8524;57.650;11.926;2022-09-09T02:54:09;12.50;99.90
16814;DHT22;8524;57.650;11.926;2022-09-09T02:56:42;12.40;99.90
16814;DHT22;8524;57.650;11.926;2022-09-09T02:59:14;12.50;99.90
16814;DHT22;8524;57.650;11.926;2022-09-09T03:01:41;12.50;99.90
16814;DHT22;8524;57.650;11.926;2022-09-09T03:04:09;12.40;99.90
16814;DHT22;8524;57.650;11.926;2022-09-09T03:06:36;12.40;99.90
16814;DHT22;8524;57.650;11.926;2022-09-09T03:09:03;12.40;99.90
16814;DHT22;8524;57.650;11.926;2022-09-09T03:11:30;12.30;99.90
16814;DHT22;8524;57.650;11.926;2022-09-09T03:13:57;12.40;99.90
16814;DHT22;8524;57.650;11.926;2022-09-09T03:16:25;12.30;99.90
16814;DHT22;8524;57.650;11.926;2022-09-09T03:18:53;12.30;99.90
16814;DHT22;8524;57.650;11.926;2022-09-09T03:21:20;12.30;99.90
16814;DHT22;8524;57.650;11.926;2022-09-09T03:23:47;12.30;99.90
16814;DHT22;8524;57.650;11.926;2022-09-09T03:26:14;12.30;99.90
16814;DHT22;8524;57.650;11.926;2022-09-09T03:28:41;12.30;99.90
16814;DHT22;8524;57.650;11.926;2022-09-09T03:31:08;12.20;99.90
16814;DHT22;8524;57.650;11.926;2022-09-09T03:33:37;12.30;99.90
16814;DHT22;8524;57.650;11.926;2022-09-09T03:36:05;12.30;99.90
16814;DHT22;8524;57.650;11.926;2022-09-09T03:38:33;12.20;99.90
16814;DHT22;8524;57.650;11.926;2022-09-09T03:41:00;12.30;99.90
16814;DHT22;8524;57.650;11.926;2022-09-09T03:43:28;12.30;99.90
16814;DHT22;8524;57.650;11.926;2022-09-09T03:45:55;12.30;99.90
16814;DHT22;8524;57.650;11.926;2022-09-09T03:48:24;12.30;99.90
16814;DHT22;8524;57.650;11.926;2022-09-09T03:50:53;12.30;99.90
16814;DHT22;8524;57.650;11.926;2022-09-09T03:53:22;12.40;99.90
16814;DHT22;8524;57.650;11.926;2022-09-09T03:55:52;12.40;99.90
16814;DHT22;8524;57.650;11.926;2022-09-09T03:58:21;12.40;99.90
16814;DHT22;8524;57.650;11.926;2022-09-09T04:01:00;12.30;99.90
16814;DHT22;8524;57.650;11.926;2022-09-09T04:03:28;12.30;99.90
16814;DHT22;8524;57.650;11.926;2022-09-09T04:05:59;12.20;99.90
16814;DHT22;8524;57.650;11.926;2022-09-09T04:08:26;12.20;99.90
16814;DHT22;8524;57.650;11.926;2022-09-09T04:10:54;12.20;99.90
16814;DHT22;8524;57.650;11.926;2022-09-09T04:13:24;12.20;99.90
16814;DHT22;8524;57.650;11.926;2022-09-09T04:15:52;12.10;99.90
16814;DHT22;8524;57.650;11.926;2022-09-09T04:18:20;12.10;99.90
16814;DHT22;8524;57.650;11.926;2022-09-09T04:20:48;12.00;99.90
16814;DHT22;8524;57.650;11.926;2022-09-09T04:23:17;12.00;99.90
16814;DHT22;8524;57.650;11.926;2022-09-09T04:25:44;12.00;99.90
16814;DHT22;8524;57.650;11.926;2022-09-09T04:28:12;12.00;99.90
16814;DHT22;8524;57.650;11.926;2022-09-09T04:30:39;12.00;99.90
16814;DHT22;8524;57.650;11.926;2022-09-09T04:33:06;12.00;99.90
16814;DHT22;8524;57.650;11.926;2022-09-09T04:35:34;12.00;99.90
16814;DHT22;8524;57.650;11.926;2022-09-09T04:38:01;12.00;99.90
16814;DHT22;8524;57.650;11.926;2022-09-09T04:40:31;12.10;99.90
16814;DHT22;8524;57.650;11.926;2022-09-09T04:42:59;12.10;99.90
16814;DHT22;8524;57.650;11.926;2022-09-09T04:45:26;12.20;99.90
16814;DHT22;8524;57.650;11.926;2022-09-09T04:47:54;12.20;99.90
16814;DHT22;8524;57.650;11.926;2022-09-09T04:50:21;12.30;99.90
16814;DHT22;8524;57.650;11.926;2022-09-09T04:52:48;12.40;99.90
16814;DHT22;8524;57.650;11.926;2022-09-09T04:55:15;12.60;99.90
16814;DHT22;8524;57.650;11.926;2022-09-09T04:57:43;12.60;99.90
16814;DHT22;8524;57.650;11.926;2022-09-09T05:00:11;12.80;99.90
16814;DHT22;8524;57.650;11.926;2022-09-09T05:02:39;12.80;99.90
16814;DHT22;8524;57.650;11.926;2022-09-09T05:05:08;12.80;99.90
16814;DHT22;8524;57.650;11.926;2022-09-09T05:07:36;12.80;99.90
16814;DHT22;8524;57.650;11.926;2022-09-09T05:10:04;12.80;99.90
16814;DHT22;8524;57.650;11.926;2022-09-09T05:12:31;12.90;99.90
16814;DHT22;8524;57.650;11.926;2022-09-09T05:15:00;13.00;99.90
16814;DHT22;8524;57.650;11.926;2022-09-09T05:17:27;13.00;99.90
16814;DHT22;8524;57.650;11.926;2022-09-09T05:19:54;13.10;99.90
16814;DHT22;8524;57.650;11.926;2022-09-09T05:22:21;13.10;99.90
16814;DHT22;8524;57.650;11.926;2022-09-09T05:24:49;13.10;99.90
16814;DHT22;8524;57.650;11.926;2022-09-09T05:27:17;13.30;99.90
16814;DHT22;8524;57.650;11.926;2022-09-09T05:29:45;13.30;99.90
16814;DHT22;8524;57.650;11.926;2022-09-09T05:32:13;13.30;99.90
16814;DHT22;8524;57.650;11.926;2022-09-09T05:34:41;13.30;99.90
16814;DHT22;8524;57.650;11.926;2022-09-09T05:37:08;13.30;99.90
16814;DHT22;8524;57.650;11.926;2022-09-09T05:39:35;13.40;99.90
16814;DHT22;8524;57.650;11.926;2022-09-09T05:42:04;13.40;99.90
16814;DHT22;8524;57.650;11.926;2022-09-09T05:44:31;13.30;99.90
16814;DHT22;8524;57.650;11.926;2022-09-09T05:46:58;13.40;99.90
16814;DHT22;8524;57.650;11.926;2022-09-09T05:49:26;13.50;99.90
16814;DHT22;8524;57.650;11.926;2022-09-09T05:51:54;13.40;99.90
16814;DHT22;8524;57.650;11.926;2022-09-09T05:54:21;13.40;99.90
16814;DHT22;8524;57.650;11.926;2022-09-09T05:56:48;13.40;99.90
16814;DHT22;8524;57.650;11.926;2022-09-09T05:59:16;13.40;99.90
16814;DHT22;8524;57.650;11.926;2022-09-09T06:01:43;13.50;99.90
16814;DHT22;8524;57.650;11.926;2022-09-09T06:04:11;13.60;99.90
16814;DHT22;8524;57.650;11.926;2022-09-09T06:06:43;13.50;99.90
16814;DHT22;8524;57.650;11.926;2022-09-09T06:09:10;13.70;99.90
16814;DHT22;8524;57.650;11.926;2022-09-09T06:11:39;13.60;99.90
16814;DHT22;8524;57.650;11.926;2022-09-09T06:14:07;13.60;99.90
16814;DHT22;8524;57.650;11.926;2022-09-09T06:16:35;13.70;99.90
16814;DHT22;8524;57.650;11.926;2022-09-09T06:19:03;13.70;99.90
16814;DHT22;8524;57.650;11.926;2022-09-09T06:21:32;13.80;99.90
16814;DHT22;8524;57.650;11.926;2022-09-09T06:24:02;13.80;99.90
16814;DHT22;8524;57.650;11.926;2022-09-09T06:26:30;13.90;99.90
16814;DHT22;8524;57.650;11.926;2022-09-09T06:28:58;13.80;99.90
16814;DHT22;8524;57.650;11.926;2022-09-09T06:31:27;14.00;99.90
16814;DHT22;8524;57.650;11.926;2022-09-09T06:33:56;14.00;99.90
16814;DHT22;8524;57.650;11.926;2022-09-09T06:36:25;14.00;99.90
16814;DHT22;8524;57.650;11.926;2022-09-09T06:38:53;14.00;99.90
16814;DHT22;8524;57.650;11.926;2022-09-09T06:41:29;14.00;99.90
16814;DHT22;8524;57.650;11.926;2022-09-09T06:44:05;14.10;99.90
16814;DHT22;8524;57.650;11.926;2022-09-09T06:46:33;14.20;99.90
16814;DHT22;8524;57.650;11.926;2022-09-09T06:49:13;14.20;99.90
16814;DHT22;8524;57.650;11.926;2022-09-09T06:51:54;14.20;99.90
16814;DHT22;8524;57.650;11.926;2022-09-09T06:54:21;14.30;99.90
16814;DHT22;8524;57.650;11.926;2022-09-09T06:56:50;14.30;99.90
16814;DHT22;8524;57.650;11.926;2022-09-09T06:59:23;14.40;99.90
16814;DHT22;8524;57.650;11.926;2022-09-09T07:02:07;14.50;99.90
16814;DHT22;8524;57.650;11.926;2022-09-09T07:04:36;14.60;99.90
16814;DHT22;8524;57.650;11.926;2022-09-09T07:07:06;14.70;99.90
16814;DHT22;8524;57.650;11.926;2022-09-09T07:09:41;14.70;99.90
16814;DHT22;8524;57.650;11.926;2022-09-09T07:12:12;14.70;99.90
16814;DHT22;8524;57.650;11.926;2022-09-09T07:14:39;14.80;99.90
16814;DHT22;8524;57.650;11.926;2022-09-09T07:17:06;14.80;99.90
16814;DHT22;8524;57.650;11.926;2022-09-09T07:19:33;14.90;99.90
16814;DHT22;8524;57.650;11.926;2022-09-09T07:22:01;14.80;99.90
16814;DHT22;8524;57.650;11.926;2022-09-09T07:24:29;14.90;99.90
16814;DHT22;8524;57.650;11.926;2022-09-09T07:26:56;14.90;99.90
16814;DHT22;8524;57.650;11.926;2022-09-09T07:29:24;15.00;99.90
16814;DHT22;8524;57.650;11.926;2022-09-09T07:31:51;15.00;99.90
16814;DHT22;8524;57.650;11.926;2022-09-09T07:34:19;15.00;99.90
16814;DHT22;8524;57.650;11.926;2022-09-09T07:36:46;15.00;99.90
16814;DHT22;8524;57.650;11.926;2022-09-09T07:39:14;15.00;99.90
16814;DHT22;8524;57.650;11.926;2022-09-09T07:41:44;15.10;99.90
16814;DHT22;8524;57.650;11.926;2022-09-09T07:44:14;15.10;99.90
16814;DHT22;8524;57.650;11.926;2022-09-09T07:46:44;15.20;99.90
16814;DHT22;8524;57.650;11.926;2022-09-09T07:49:11;15.20;99.90
16814;DHT22;8524;57.650;11.926;2022-09-09T07:51:40;15.20;99.90
16814;DHT22;8524;57.650;11.926;2022-09-09T07:54:09;15.40;99.90
16814;DHT22;8524;57.650;11.926;2022-09-09T07:56:38;15.30;99.90
16814;DHT22;8524;57.650;11.926;2022-09-09T07:59:06;15.40;99.90
16814;DHT22;8524;57.650;11.926;2022-09-09T08:01:34;15.50;99.90
16814;DHT22;8524;57.650;11.926;2022-09-09T08:04:07;15.50;99.90
16814;DHT22;8524;57.650;11.926;2022-09-09T08:06:40;15.50;99.90
16814;DHT22;8524;57.650;11.926;2022-09-09T08:09:08;15.50;99.90
16814;DHT22;8524;57.650;11.926;2022-09-09T08:11:36;15.50;99.90
16814;DHT22;8524;57.650;11.926;2022-09-09T08:14:03;15.50;99.90
16814;DHT22;8524;57.650;11.926;2022-09-09T08:16:32;15.70;99.90
16814;DHT22;8524;57.650;11.926;2022-09-09T08:19:03;15.80;99.90
16814;DHT22;8524;57.650;11.926;2022-09-09T08:21:34;15.80;99.90
16814;DHT22;8524;57.650;11.926;2022-09-09T08:24:02;15.80;99.90
16814;DHT22;8524;57.650;11.926;2022-09-09T08:26:32;15.80;99.90
16814;DHT22;8524;57.650;11.926;2022-09-09T08:29:01;15.80;99.90
16814;DHT22;8524;57.650;11.926;2022-09-09T08:31:29;15.80;99.90
16814;DHT22;8524;57.650;11.926;2022-09-09T08:33:57;15.70;99.90
16814;DHT22;8524;57.650;11.926;2022-09-09T08:36:27;15.70;99.90
16814;DHT22;8524;57.650;11.926;2022-09-09T08:38:57;15.70;99.90
16814;DHT22;8524;57.650;11.926;2022-09-09T08:42:03;15.80;99.90
16814;DHT22;8524;57.650;11.926;2022-09-09T08:44:46;15.80;99.90
16814;DHT22;8524;57.650;11.926;2022-09-09T08:47:22;15.90;99.90
16814;DHT22;8524;57.650;11.926;2022-09-09T08:50:08;16.00;99.90
16814;DHT22;8524;57.650;11.926;2022-09-09T08:52:46;15.90;99.90
16814;DHT22;8524;57.650;11.926;2022-09-09T08:55:23;16.00;99.90
16814;DHT22;8524;57.650;11.926;2022-09-09T08:57:52;16.00;99.90
16814;DHT22;8524;57.650;11.926;2022-09-09T09:00:20;16.00;99.90
16814;DHT22;8524;57.650;11.926;2022-09-09T09:02:56;16.00;99.90
16814;DHT22;8524;57.650;11.926;2022-09-09T09:05:32;16.00;99.90
16814;DHT22;8524;57.650;11.926;2022-09-09T09:08:08;16.00;99.90
16814;DHT22;8524;57.650;11.926;2022-09-09T09:10:46;16.00;99.90
16814;DHT22;8524;57.650;11.926;2022-09-09T09:13:17;16.00;99.90
16814;DHT22;8524;57.650;11.926;2022-09-09T09:15:50;16.10;99.90
16814;DHT22;8524;57.650;11.926;2022-09-09T09:18:19;16.10;99.90
16814;DHT22;8524;57.650;11.926;2022-09-09T09:20:54;16.20;99.90
16814;DHT22;8524;57.650;11.926;2022-09-09T09:23:31;16.30;99.90
16814;DHT22;8524;57.650;11.926;2022-09-09T09:26:05;16.30;99.90
16814;DHT22;8524;57.650;11.926;2022-09-09T09:28:34;16.30;99.90
16814;DHT22;8524;57.650;11.926;2022-09-09T09:31:05;16.20;99.90
16814;DHT22;8524;57.650;11.926;2022-09-09T09:33:36;16.30;99.90
16814;DHT22;8524;57.650;11.926;2022-09-09T09:36:06;16.30;99.90
16814;DHT22;8524;57.650;11.926;2022-09-09T09:38:35;16.30;99.90
16814;DHT22;8524;57.650;11.926;2022-09-09T09:41:04;16.40;99.90
16814;DHT22;8524;57.650;11.926;2022-09-09T09:43:33;16.30;99.90
16814;DHT22;8524;57.650;11.926;2022-09-09T09:46:00;16.40;99.90
16814;DHT22;8524;57.650;11.926;2022-09-09T09:48:30;16.40;99.90
16814;DHT22;8524;57.650;11.926;2022-09-09T09:50:59;16.50;99.90
16814;DHT22;8524;57.650;11.926;2022-09-09T09:53:29;16.50;99.90
16814;DHT22;8524;57.650;11.926;2022-09-09T09:56:00;16.60;99.90
16814;DHT22;8524;57.650;11.926;2022-09-09T09:58:31;16.50;99.90
16814;DHT22;8524;57.650;11.926;2022-09-09T10:01:00;16.60;99.90
16814;DHT22;8524;57.650;11.926;2022-09-09T10:03:30;16.50;99.90
16814;DHT22;8524;57.650;11.926;2022-09-09T10:05:57;16.60;99.90
16814;DHT22;8524;57.650;11.926;2022-09-09T10:08:25;16.50;99.90
16814;DHT22;8524;57.650;11.926;2022-09-09T10:11:02;16.40;99.90
16814;DHT22;8524;57.650;11.926;2022-09-09T10:13:40;16.30;99.90
16814;DHT22;8524;57.650;11.926;2022-09-09T10:16:21;16.20;99.90
16814;DHT22;8524;57.650;11.926;2022-09-09T10:18:58;16.10;99.90
16814;DHT22;8524;57.650;11.926;2022-09-09T10:21:42;16.00;99.90
16814;DHT22;8524;57.650;11.926;2022-09-09T10:27:17;15.90;99.90
16814;DHT22;8524;57.650;11.926;2022-09-09T10:30:00;15.80;99.90
16814;DHT22;8524;57.650;11.926;2022-09-09T10:32:39;15.70;99.90
16814;DHT22;8524;57.650;11.926;2022-09-09T10:35:14;15.70;99.90
16814;DHT22;8524;57.650;11.926;2022-09-09T10:38:00;15.60;99.90
16814;DHT22;8524;57.650;11.926;2022-09-09T10:40:39;15.70;99.90
16814;DHT22;8524;57.650;11.926;2022-09-09T10:43:16;15.70;99.90
16814;DHT22;8524;57.650;11.926;2022-09-09T10:45:59;15.60;99.90
16814;DHT22;8524;57.650;11.926;2022-09-09T10:48:38;15.50;99.90
16814;DHT22;8524;57.650;11.926;2022-09-09T10:51:18;15.50;99.90
16814;DHT22;8524;57.650;11.926;2022-09-09T10:53:55;15.50;99.90
16814;DHT22;8524;57.650;11.926;2022-09-09T10:56:30;15.50;99.90
16814;DHT22;8524;57.650;11.926;2022-09-09T10:59:02;15.40;99.90
16814;DHT22;8524;57.650;11.926;2022-09-09T11:01:36;15.40;99.90
16814;DHT22;8524;57.650;11.926;2022-09-09T11:04:10;15.30;99.90
16814;DHT22;8524;57.650;11.926;2022-09-09T11:06:41;15.30;99.90
16814;DHT22;8524;57.650;11.926;2022-09-09T11:09:17;15.30;99.90
16814;DHT22;8524;57.650;11.926;2022-09-09T11:11:49;15.30;99.90
16814;DHT22;8524;57.650;11.926;2022-09-09T11:14:21;15.30;99.90
16814;DHT22;8524;57.650;11.926;2022-09-09T11:16:55;15.20;99.90
16814;DHT22;8524;57.650;11.926;2022-09-09T11:19:30;15.30;99.90
16814;DHT22;8524;57.650;11.926;2022-09-09T11:22:01;15.20;99.90
16814;DHT22;8524;57.650;11.926;2022-09-09T11:24:35;15.30;99.90
16814;DHT22;8524;57.650;11.926;2022-09-09T11:27:11;15.20;99.90
16814;DHT22;8524;57.650;11.926;2022-09-09T11:36:03;15.30;99.90
16814;DHT22;8524;57.650;11.926;2022-09-09T11:38:38;15.20;99.90
16814;DHT22;8524;57.650;11.926;2022-09-09T11:41:09;15.20;99.90
16814;DHT22;8524;57.650;11.926;2022-09-09T11:43:43;15.10;99.90
16814;DHT22;8524;57.650;11.926;2022-09-09T11:46:12;15.10;99.90
16814;DHT22;8524;57.650;11.926;2022-09-09T11:48:42;15.00;99.90
16814;DHT22;8524;57.650;11.926;2022-09-09T11:51:24;15.00;99.90
16814;DHT22;8524;57.650;11.926;2022-09-09T11:53:54;15.00;99.90
16814;DHT22;8524;57.650;11.926;2022-09-09T11:56:26;15.00;99.90
16814;DHT22;8524;57.650;11.926;2022-09-09T11:58:57;15.00;99.90
16814;DHT22;8524;57.650;11.926;2022-09-09T12:01:41;15.00;99.90
16814;DHT22;8524;57.650;11.926;2022-09-09T12:04:29;15.10;99.90
16814;DHT22;8524;57.650;11.926;2022-09-09T12:07:00;15.00;99.90
16814;DHT22;8524;57.650;11.926;2022-09-09T12:09:44;15.10;99.90
16814;DHT22;8524;57.650;11.926;2022-09-09T12:12:28;15.10;99.90
16814;DHT22;8524;57.650;11.926;2022-09-09T12:18:02;15.10;99.90
16814;DHT22;8524;57.650;11.926;2022-09-09T12:20:36;15.10;99.90
16814;DHT22;8524;57.650;11.926;2022-09-09T12:23:29;15.10;99.90
16814;DHT22;8524;57.650;11.926;2022-09-09T12:26:25;15.10;99.90
16814;DHT22;8524;57.650;11.926;2022-09-09T12:29:01;15.00;99.90
16814;DHT22;8524;57.650;11.926;2022-09-09T12:31:35;15.00;99.90
16814;DHT22;8524;57.650;11.926;2022-09-09T12:34:11;15.00;99.90
16814;DHT22;8524;57.650;11.926;2022-09-09T12:36:40;15.00;99.90
16814;DHT22;8524;57.650;11.926;2022-09-09T12:39:30;15.00;99.90
16814;DHT22;8524;57.650;11.926;2022-09-09T12:41:59;15.00;99.90
16814;DHT22;8524;57.650;11.926;2022-09-09T12:44:26;15.00;99.90
16814;DHT22;8524;57.650;11.926;2022-09-09T12:46:55;15.00;99.90
16814;DHT22;8524;57.650;11.926;2022-09-09T12:49:28;15.00;99.90
16814;DHT22;8524;57.650;11.926;2022-09-09T12:52:02;14.90;99.90
16814;DHT22;8524;57.650;11.926;2022-09-09T12:54:33;14.90;99.90
16814;DHT22;8524;57.650;11.926;2022-09-09T12:57:01;15.00;99.90
16814;DHT22;8524;57.650;11.926;2022-09-09T12:59:35;15.00;99.90
16814;DHT22;8524;57.650;11.926;2022-09-09T13:02:10;15.00;99.90
16814;DHT22;8524;57.650;11.926;2022-09-09T13:04:38;15.00;99.90
16814;DHT22;8524;57.650;11.926;2022-09-09T13:07:08;15.10;99.90
16814;DHT22;8524;57.650;11.926;2022-09-09T13:09:38;15.10;99.90
16814;DHT22;8524;57.650;11.926;2022-09-09T13:12:06;15.10;99.90
16814;DHT22;8524;57.650;11.926;2022-09-09T13:14:37;15.10;99.90
16814;DHT22;8524;57.650;11.926;2022-09-09T13:17:05;15.00;99.90
16814;DHT22;8524;57.650;11.926;2022-09-09T13:19:36;15.00;99.90
16814;DHT22;8524;57.650;11.926;2022-09-09T13:22:12;15.00;99.90
16814;DHT22;8524;57.650;11.926;2022-09-09T13:24:41;15.00;99.90
16814;DHT22;8524;57.650;11.926;2022-09-09T13:27:24;15.00;99.90
16814;DHT22;8524;57.650;11.926;2022-09-09T13:29:54;15.00;99.90
16814;DHT22;8524;57.650;11.926;2022-09-09T13:32:22;15.00;99.90
16814;DHT22;8524;57.650;11.926;2022-09-09T13:34:54;15.00;99.90
16814;DHT22;8524;57.650;11.926;2022-09-09T13:37:23;15.00;99.90
16814;DHT22;8524;57.650;11.926;2022-09-09T13:39:54;14.90;99.90
16814;DHT22;8524;57.650;11.926;2022-09-09T13:42:24;15.00;99.90
16814;DHT22;8524;57.650;11.926;2022-09-09T13:44:52;15.00;99.90
16814;DHT22;8524;57.650;11.926;2022-09-09T13:47:21;15.00;99.90
16814;DHT22;8524;57.650;11.926;2022-09-09T13:49:49;15.00;99.90
16814;DHT22;8524;57.650;11.926;2022-09-09T13:52:17;15.00;99.90
16814;DHT22;8524;57.650;11.926;2022-09-09T13:54:47;15.00;99.90
16814;DHT22;8524;57.650;11.926;2022-09-09T13:57:19;15.00;99.90
16814;DHT22;8524;57.650;11.926;2022-09-09T13:59:47;14.90;99.90
16814;DHT22;8524;57.650;11.926;2022-09-09T14:02:14;14.90;99.90
16814;DHT22;8524;57.650;11.926;2022-09-09T14:04:42;14.90;99.90
16814;DHT22;8524;57.650;11.926;2022-09-09T14:07:11;14.90;99.90
16814;DHT22;8524;57.650;11.926;2022-09-09T14:09:39;15.00;99.90
16814;DHT22;8524;57.650;11.926;2022-09-09T14:12:09;15.00;99.90
16814;DHT22;8524;57.650;11.926;2022-09-09T14:14:37;15.00;99.90
16814;DHT22;8524;57.650;11.926;2022-09-09T14:17:04;15.00;99.90
16814;DHT22;8524;57.650;11.926;2022-09-09T14:19:32;15.00;99.90
16814;DHT22;8524;57.650;11.926;2022-09-09T14:21:59;15.00;99.90
16814;DHT22;8524;57.650;11.926;2022-09-09T14:24:25;15.00;99.90
16814;DHT22;8524;57.650;11.926;2022-09-09T14:26:53;14.90;99.90
16814;DHT22;8524;57.650;11.926;2022-09-09T14:29:20;15.00;99.90
16814;DHT22;8524;57.650;11.926;2022-09-09T14:31:48;14.90;99.90
16814;DHT22;8524;57.650;11.926;2022-09-09T14:34:15;15.00;99.90
16814;DHT22;8524;57.650;11.926;2022-09-09T14:36:42;15.00;99.90
16814;DHT22;8524;57.650;11.926;2022-09-09T14:39:10;15.00;99.90
16814;DHT22;8524;57.650;11.926;2022-09-09T14:41:37;15.00;99.90
16814;DHT22;8524;57.650;11.926;2022-09-09T14:44:04;15.00;99.90
16814;DHT22;8524;57.650;11.926;2022-09-09T14:46:31;15.00;99.90
16814;DHT22;8524;57.650;11.926;2022-09-09T14:49:00;15.00;99.90
16814;DHT22;8524;57.650;11.926;2022-09-09T14:51:27;15.00;99.90
16814;DHT22;8524;57.650;11.926;2022-09-09T14:53:55;15.00;99.90
16814;DHT22;8524;57.650;11.926;2022-09-09T14:56:24;15.00;99.90
16814;DHT22;8524;57.650;11.926;2022-09-09T14:58:53;15.00;99.90
16814;DHT22;8524;57.650;11.926;2022-09-09T15:01:21;15.00;99.90
16814;DHT22;8524;57.650;11.926;2022-09-09T15:03:50;15.00;99.90
16814;DHT22;8524;57.650;11.926;2022-09-09T15:06:20;15.00;99.90
16814;DHT22;8524;57.650;11.926;2022-09-09T15:08:47;14.90;99.90
16814;DHT22;8524;57.650;11.926;2022-09-09T15:11:16;14.90;99.90
16814;DHT22;8524;57.650;11.926;2022-09-09T15:13:44;14.90;99.90
16814;DHT22;8524;57.650;11.926;2022-09-09T15:16:12;15.00;99.90
16814;DHT22;8524;57.650;11.926;2022-09-09T15:18:40;15.00;99.90
16814;DHT22;8524;57.650;11.926;2022-09-09T15:21:08;15.00;99.90
16814;DHT22;8524;57.650;11.926;2022-09-09T15:23:37;15.00;99.90
16814;DHT22;8524;57.650;11.926;2022-09-09T15:26:04;15.00;99.90
16814;DHT22;8524;57.650;11.926;2022-09-09T15:28:33;15.10;99.90
16814;DHT22;8524;57.650;11.926;2022-09-09T15:31:06;15.00;99.90
16814;DHT22;8524;57.650;11.926;2022-09-09T15:33:33;15.00;99.90
16814;DHT22;8524;57.650;11.926;2022-09-09T15:36:12;15.00;99.90
16814;DHT22;8524;57.650;11.926;2022-09-09T15:38:41;14.90;99.90
16814;DHT22;8524;57.650;11.926;2022-09-09T15:41:09;15.00;99.90
16814;DHT22;8524;57.650;11.926;2022-09-09T15:43:36;15.00;99.90
16814;DHT22;8524;57.650;11.926;2022-09-09T15:46:24;15.00;99.90
16814;DHT22;8524;57.650;11.926;2022-09-09T15:48:53;15.00;99.90
16814;DHT22;8524;57.650;11.926;2022-09-09T15:51:21;15.00;99.90
16814;DHT22;8524;57.650;11.926;2022-09-09T15:53:53;15.10;99.90
16814;DHT22;8524;57.650;11.926;2022-09-09T15:56:21;15.10;99.90
16814;DHT22;8524;57.650;11.926;2022-09-09T15:58:48;15.10;99.90
16814;DHT22;8524;57.650;11.926;2022-09-09T16:01:15;15.00;99.90
16814;DHT22;8524;57.650;11.926;2022-09-09T16:03:45;15.10;99.90
16814;DHT22;8524;57.650;11.926;2022-09-09T16:06:13;15.10;99.90
16814;DHT22;8524;57.650;11.926;2022-09-09T16:08:42;15.20;99.90
16814;DHT22;8524;57.650;11.926;2022-09-09T16:11:13;15.20;99.90
16814;DHT22;8524;57.650;11.926;2022-09-09T16:13:42;15.10;99.90